Vista Santa Rosa, California
Current Conditions -  °F | °C
As of 4:56 AM on Saturday 25 Oct 2014 (Local Time) from KNJK Reporting Station
Few Clouds Few Clouds  
Wind Chill: 68°   Ceiling: Unl
Heat Index: 68°   Visibility: 10mi
Dew Point: 46°   Wind: 6mph
Humidity: 45%   Direction: 20°NNE
Pressure: 29.9"   Gusts: NA
Location:  33.093°N, 116.06°W
Report Text: KNJK 251156Z AUTO 02005KT 10SM FEW110 20/08 A2990 RMK AO2 SLP140 T02000078 10244 20200 55007
Loading
Personal Weather Stations






























Interactive Weather Map
Tropical Storm Tracking
New forecast layout! Learn more

10-Day Weather Forecast

Advertisements
Track Severe Weather on mobile